sensor_id;sensor_type;location;lat;lon;timestamp;P1;durP1;ratioP1;P2;durP2;ratioP2
16512;SDS011;8369;48.030;11.598;2023-02-08T00:01:40;13.43;;;7.07;;
16512;SDS011;8369;48.030;11.598;2023-02-08T00:04:06;15.37;;;7.43;;
16512;SDS011;8369;48.030;11.598;2023-02-08T00:06:34;13.60;;;6.77;;
16512;SDS011;8369;48.030;11.598;2023-02-08T00:09:00;17.17;;;6.50;;
16512;SDS011;8369;48.030;11.598;2023-02-08T00:11:27;13.87;;;6.07;;
16512;SDS011;8369;48.030;11.598;2023-02-08T00:13:54;14.53;;;6.83;;
16512;SDS011;8369;48.030;11.598;2023-02-08T00:16:20;10.73;;;6.73;;
16512;SDS011;8369;48.030;11.598;2023-02-08T00:18:45;13.07;;;6.23;;
16512;SDS011;8369;48.030;11.598;2023-02-08T00:21:13;13.23;;;6.83;;
16512;SDS011;8369;48.030;11.598;2023-02-08T00:23:40;13.47;;;7.27;;
16512;SDS011;8369;48.030;11.598;2023-02-08T00:26:06;15.53;;;7.23;;
16512;SDS011;8369;48.030;11.598;2023-02-08T00:28:32;17.30;;;7.57;;
16512;SDS011;8369;48.030;11.598;2023-02-08T00:31:01;11.50;;;6.60;;
16512;SDS011;8369;48.030;11.598;2023-02-08T00:33:27;13.30;;;7.20;;
16512;SDS011;8369;48.030;11.598;2023-02-08T00:36:00;12.30;;;7.13;;
16512;SDS011;8369;48.030;11.598;2023-02-08T00:38:26;13.10;;;7.00;;
16512;SDS011;8369;48.030;11.598;2023-02-08T00:40:52;9.63;;;6.57;;
16512;SDS011;8369;48.030;11.598;2023-02-08T00:43:18;12.77;;;6.10;;
16512;SDS011;8369;48.030;11.598;2023-02-08T00:45:44;9.83;;;5.97;;
16512;SDS011;8369;48.030;11.598;2023-02-08T00:48:10;13.30;;;6.87;;
16512;SDS011;8369;48.030;11.598;2023-02-08T00:50:36;12.00;;;6.40;;
16512;SDS011;8369;48.030;11.598;2023-02-08T00:53:02;12.83;;;6.77;;
16512;SDS011;8369;48.030;11.598;2023-02-08T00:55:28;17.70;;;7.17;;
16512;SDS011;8369;48.030;11.598;2023-02-08T00:57:54;15.20;;;7.10;;
16512;SDS011;8369;48.030;11.598;2023-02-08T01:00:20;11.27;;;6.13;;
16512;SDS011;8369;48.030;11.598;2023-02-08T01:02:46;16.13;;;6.70;;
16512;SDS011;8369;48.030;11.598;2023-02-08T01:05:12;13.57;;;6.60;;
16512;SDS011;8369;48.030;11.598;2023-02-08T01:07:38;10.27;;;5.63;;
16512;SDS011;8369;48.030;11.598;2023-02-08T01:10:04;11.53;;;6.30;;
16512;SDS011;8369;48.030;11.598;2023-02-08T01:12:31;9.33;;;5.13;;
16512;SDS011;8369;48.030;11.598;2023-02-08T01:14:57;10.13;;;5.43;;
16512;SDS011;8369;48.030;11.598;2023-02-08T01:17:23;9.80;;;5.30;;
16512;SDS011;8369;48.030;11.598;2023-02-08T01:19:49;12.17;;;5.57;;
16512;SDS011;8369;48.030;11.598;2023-02-08T01:22:15;9.77;;;5.27;;
16512;SDS011;8369;48.030;11.598;2023-02-08T01:24:41;10.33;;;5.67;;
16512;SDS011;8369;48.030;11.598;2023-02-08T01:27:07;11.07;;;5.70;;
16512;SDS011;8369;48.030;11.598;2023-02-08T01:29:35;8.77;;;5.20;;
16512;SDS011;8369;48.030;11.598;2023-02-08T01:32:01;9.70;;;5.47;;
16512;SDS011;8369;48.030;11.598;2023-02-08T01:34:27;10.87;;;5.73;;
16512;SDS011;8369;48.030;11.598;2023-02-08T01:36:53;8.57;;;5.30;;
16512;SDS011;8369;48.030;11.598;2023-02-08T01:39:19;11.50;;;5.80;;
16512;SDS011;8369;48.030;11.598;2023-02-08T01:41:45;11.73;;;5.77;;
16512;SDS011;8369;48.030;11.598;2023-02-08T01:46:38;12.97;;;6.70;;
16512;SDS011;8369;48.030;11.598;2023-02-08T01:51:56;10.73;;;5.37;;
16512;SDS011;8369;48.030;11.598;2023-02-08T01:54:34;11.20;;;6.60;;
16512;SDS011;8369;48.030;11.598;2023-02-08T01:57:05;10.93;;;6.27;;
16512;SDS011;8369;48.030;11.598;2023-02-08T01:59:33;9.57;;;5.90;;
16512;SDS011;8369;48.030;11.598;2023-02-08T02:02:06;11.93;;;5.90;;
16512;SDS011;8369;48.030;11.598;2023-02-08T02:04:35;11.07;;;6.03;;
16512;SDS011;8369;48.030;11.598;2023-02-08T02:07:01;11.63;;;5.70;;
16512;SDS011;8369;48.030;11.598;2023-02-08T02:09:37;11.53;;;5.77;;
16512;SDS011;8369;48.030;11.598;2023-02-08T02:12:22;10.90;;;5.30;;
16512;SDS011;8369;48.030;11.598;2023-02-08T02:14:48;11.73;;;5.30;;
16512;SDS011;8369;48.030;11.598;2023-02-08T02:17:16;9.70;;;5.63;;
16512;SDS011;8369;48.030;11.598;2023-02-08T02:33:14;14.33;;;6.73;;
16512;SDS011;8369;48.030;11.598;2023-02-08T02:35:53;17.10;;;7.90;;
16512;SDS011;8369;48.030;11.598;2023-02-08T02:41:13;13.83;;;7.50;;
16512;SDS011;8369;48.030;11.598;2023-02-08T02:47:37;12.23;;;6.33;;
16512;SDS011;8369;48.030;11.598;2023-02-08T02:50:16;14.07;;;6.43;;
16512;SDS011;8369;48.030;11.598;2023-02-08T02:53:12;13.03;;;7.07;;
16512;SDS011;8369;48.030;11.598;2023-02-08T02:55:57;10.33;;;6.43;;
16512;SDS011;8369;48.030;11.598;2023-02-08T02:58:26;12.97;;;7.00;;
16512;SDS011;8369;48.030;11.598;2023-02-08T03:00:53;12.97;;;7.50;;
16512;SDS011;8369;48.030;11.598;2023-02-08T03:03:24;16.23;;;7.67;;
16512;SDS011;8369;48.030;11.598;2023-02-08T03:05:53;15.43;;;8.13;;
16512;SDS011;8369;48.030;11.598;2023-02-08T03:08:32;14.97;;;8.10;;
16512;SDS011;8369;48.030;11.598;2023-02-08T03:11:26;14.87;;;8.13;;
16512;SDS011;8369;48.030;11.598;2023-02-08T03:19:38;14.27;;;7.50;;
16512;SDS011;8369;48.030;11.598;2023-02-08T03:22:13;13.63;;;7.93;;
16512;SDS011;8369;48.030;11.598;2023-02-08T03:24:53;12.60;;;7.77;;
16512;SDS011;8369;48.030;11.598;2023-02-08T03:32:59;15.97;;;7.97;;
16512;SDS011;8369;48.030;11.598;2023-02-08T03:35:37;14.37;;;6.73;;
16512;SDS011;8369;48.030;11.598;2023-02-08T03:38:09;11.33;;;7.07;;
16512;SDS011;8369;48.030;11.598;2023-02-08T03:40:42;9.63;;;5.57;;
16512;SDS011;8369;48.030;11.598;2023-02-08T03:43:24;10.70;;;6.37;;
16512;SDS011;8369;48.030;11.598;2023-02-08T03:46:09;11.10;;;6.53;;
16512;SDS011;8369;48.030;11.598;2023-02-08T03:49:03;15.23;;;6.07;;
16512;SDS011;8369;48.030;11.598;2023-02-08T03:51:36;11.10;;;5.33;;
16512;SDS011;8369;48.030;11.598;2023-02-08T03:54:08;10.07;;;5.60;;
16512;SDS011;8369;48.030;11.598;2023-02-08T03:56:46;14.88;;;5.43;;
16512;SDS011;8369;48.030;11.598;2023-02-08T03:59:20;11.60;;;5.53;;
16512;SDS011;8369;48.030;11.598;2023-02-08T04:01:53;11.70;;;5.77;;
16512;SDS011;8369;48.030;11.598;2023-02-08T04:04:22;13.07;;;6.87;;
16512;SDS011;8369;48.030;11.598;2023-02-08T04:06:50;11.37;;;6.37;;
16512;SDS011;8369;48.030;11.598;2023-02-08T04:09:16;14.73;;;7.20;;
16512;SDS011;8369;48.030;11.598;2023-02-08T04:11:42;11.03;;;5.83;;
16512;SDS011;8369;48.030;11.598;2023-02-08T04:14:08;12.43;;;6.40;;
16512;SDS011;8369;48.030;11.598;2023-02-08T04:16:38;9.90;;;5.77;;
16512;SDS011;8369;48.030;11.598;2023-02-08T04:19:04;13.73;;;6.83;;
16512;SDS011;8369;48.030;11.598;2023-02-08T04:21:30;12.10;;;5.97;;
16512;SDS011;8369;48.030;11.598;2023-02-08T04:23:59;10.63;;;6.03;;
16512;SDS011;8369;48.030;11.598;2023-02-08T04:26:25;14.10;;;6.27;;
16512;SDS011;8369;48.030;11.598;2023-02-08T04:28:51;9.97;;;5.47;;
16512;SDS011;8369;48.030;11.598;2023-02-08T04:31:16;8.10;;;4.93;;
16512;SDS011;8369;48.030;11.598;2023-02-08T04:33:42;11.70;;;6.70;;
16512;SDS011;8369;48.030;11.598;2023-02-08T04:36:08;11.17;;;6.00;;
16512;SDS011;8369;48.030;11.598;2023-02-08T04:38:34;11.70;;;6.10;;
16512;SDS011;8369;48.030;11.598;2023-02-08T04:41:01;13.43;;;6.40;;
16512;SDS011;8369;48.030;11.598;2023-02-08T04:43:27;12.63;;;6.50;;
16512;SDS011;8369;48.030;11.598;2023-02-08T04:45:53;13.67;;;5.73;;
16512;SDS011;8369;48.030;11.598;2023-02-08T04:48:19;13.97;;;7.20;;
16512;SDS011;8369;48.030;11.598;2023-02-08T04:50:45;12.23;;;6.30;;
16512;SDS011;8369;48.030;11.598;2023-02-08T04:53:11;11.47;;;6.20;;
16512;SDS011;8369;48.030;11.598;2023-02-08T04:55:37;12.07;;;6.60;;
16512;SDS011;8369;48.030;11.598;2023-02-08T04:58:03;12.07;;;5.53;;
16512;SDS011;8369;48.030;11.598;2023-02-08T05:00:29;11.60;;;6.53;;
16512;SDS011;8369;48.030;11.598;2023-02-08T05:02:55;11.13;;;5.70;;
16512;SDS011;8369;48.030;11.598;2023-02-08T05:05:23;20.87;;;8.83;;
16512;SDS011;8369;48.030;11.598;2023-02-08T05:07:49;13.13;;;6.43;;
16512;SDS011;8369;48.030;11.598;2023-02-08T05:10:15;11.40;;;6.97;;
16512;SDS011;8369;48.030;11.598;2023-02-08T05:12:41;14.53;;;7.47;;
16512;SDS011;8369;48.030;11.598;2023-02-08T05:15:07;14.90;;;7.90;;
16512;SDS011;8369;48.030;11.598;2023-02-08T05:17:33;18.30;;;8.70;;
16512;SDS011;8369;48.030;11.598;2023-02-08T05:19:59;16.77;;;8.30;;
16512;SDS011;8369;48.030;11.598;2023-02-08T05:22:24;12.70;;;7.40;;
16512;SDS011;8369;48.030;11.598;2023-02-08T05:24:50;13.97;;;7.30;;
16512;SDS011;8369;48.030;11.598;2023-02-08T05:27:16;18.93;;;9.33;;
16512;SDS011;8369;48.030;11.598;2023-02-08T05:29:42;16.53;;;9.20;;
16512;SDS011;8369;48.030;11.598;2023-02-08T05:32:07;18.83;;;8.33;;
16512;SDS011;8369;48.030;11.598;2023-02-08T05:34:33;16.93;;;9.13;;
16512;SDS011;8369;48.030;11.598;2023-02-08T05:37:00;19.20;;;9.60;;
16512;SDS011;8369;48.030;11.598;2023-02-08T05:39:26;15.90;;;8.00;;
16512;SDS011;8369;48.030;11.598;2023-02-08T05:41:55;15.07;;;8.10;;
16512;SDS011;8369;48.030;11.598;2023-02-08T05:44:21;19.60;;;9.57;;
16512;SDS011;8369;48.030;11.598;2023-02-08T05:46:46;16.77;;;8.00;;
16512;SDS011;8369;48.030;11.598;2023-02-08T05:49:12;14.10;;;7.90;;
16512;SDS011;8369;48.030;11.598;2023-02-08T05:51:38;16.30;;;7.17;;
16512;SDS011;8369;48.030;11.598;2023-02-08T05:54:04;18.17;;;8.40;;
16512;SDS011;8369;48.030;11.598;2023-02-08T05:56:29;15.03;;;7.87;;
16512;SDS011;8369;48.030;11.598;2023-02-08T05:58:55;16.60;;;8.27;;
16512;SDS011;8369;48.030;11.598;2023-02-08T06:01:21;24.80;;;9.30;;
16512;SDS011;8369;48.030;11.598;2023-02-08T06:03:47;15.93;;;8.70;;
16512;SDS011;8369;48.030;11.598;2023-02-08T06:06:13;15.37;;;7.80;;
16512;SDS011;8369;48.030;11.598;2023-02-08T06:08:39;20.27;;;9.43;;
16512;SDS011;8369;48.030;11.598;2023-02-08T06:11:05;17.47;;;9.27;;
16512;SDS011;8369;48.030;11.598;2023-02-08T06:13:31;19.53;;;9.40;;
16512;SDS011;8369;48.030;11.598;2023-02-08T06:16:00;21.23;;;8.23;;
16512;SDS011;8369;48.030;11.598;2023-02-08T06:18:26;22.37;;;8.50;;
16512;SDS011;8369;48.030;11.598;2023-02-08T06:20:52;18.60;;;9.33;;
16512;SDS011;8369;48.030;11.598;2023-02-08T06:23:19;16.20;;;9.33;;
16512;SDS011;8369;48.030;11.598;2023-02-08T06:25:45;18.40;;;8.77;;
16512;SDS011;8369;48.030;11.598;2023-02-08T06:28:11;21.70;;;8.80;;
16512;SDS011;8369;48.030;11.598;2023-02-08T06:30:37;24.37;;;9.27;;
16512;SDS011;8369;48.030;11.598;2023-02-08T06:33:03;20.00;;;8.17;;
16512;SDS011;8369;48.030;11.598;2023-02-08T06:35:30;17.47;;;9.50;;
16512;SDS011;8369;48.030;11.598;2023-02-08T06:37:56;22.33;;;10.47;;
16512;SDS011;8369;48.030;11.598;2023-02-08T06:40:23;23.70;;;10.63;;
16512;SDS011;8369;48.030;11.598;2023-02-08T06:42:49;18.63;;;10.10;;
16512;SDS011;8369;48.030;11.598;2023-02-08T06:45:16;15.80;;;8.17;;
16512;SDS011;8369;48.030;11.598;2023-02-08T06:47:42;19.67;;;9.70;;
16512;SDS011;8369;48.030;11.598;2023-02-08T06:50:08;19.57;;;10.10;;
16512;SDS011;8369;48.030;11.598;2023-02-08T06:52:34;13.23;;;7.87;;
16512;SDS011;8369;48.030;11.598;2023-02-08T06:55:01;15.90;;;7.87;;
16512;SDS011;8369;48.030;11.598;2023-02-08T06:57:26;19.20;;;8.87;;
16512;SDS011;8369;48.030;11.598;2023-02-08T06:59:52;19.73;;;8.93;;
16512;SDS011;8369;48.030;11.598;2023-02-08T07:02:19;13.57;;;7.27;;
16512;SDS011;8369;48.030;11.598;2023-02-08T07:04:46;13.60;;;7.50;;
16512;SDS011;8369;48.030;11.598;2023-02-08T07:07:12;17.77;;;7.87;;
16512;SDS011;8369;48.030;11.598;2023-02-08T07:09:39;18.40;;;9.70;;
16512;SDS011;8369;48.030;11.598;2023-02-08T07:12:05;18.63;;;8.77;;
16512;SDS011;8369;48.030;11.598;2023-02-08T07:14:31;13.90;;;8.50;;
16512;SDS011;8369;48.030;11.598;2023-02-08T07:17:03;18.53;;;8.60;;
16512;SDS011;8369;48.030;11.598;2023-02-08T07:19:29;18.27;;;8.43;;
16512;SDS011;8369;48.030;11.598;2023-02-08T07:25:36;18.30;;;8.23;;
16512;SDS011;8369;48.030;11.598;2023-02-08T07:28:02;15.37;;;8.30;;
16512;SDS011;8369;48.030;11.598;2023-02-08T07:30:27;17.17;;;8.30;;
16512;SDS011;8369;48.030;11.598;2023-02-08T07:32:53;20.80;;;9.53;;
16512;SDS011;8369;48.030;11.598;2023-02-08T07:35:19;16.30;;;8.30;;
16512;SDS011;8369;48.030;11.598;2023-02-08T07:37:45;19.67;;;9.87;;
16512;SDS011;8369;48.030;11.598;2023-02-08T07:40:11;19.33;;;10.27;;
16512;SDS011;8369;48.030;11.598;2023-02-08T07:42:36;16.03;;;8.83;;
16512;SDS011;8369;48.030;11.598;2023-02-08T07:45:02;19.73;;;10.50;;
16512;SDS011;8369;48.030;11.598;2023-02-08T07:47:28;19.73;;;9.90;;
16512;SDS011;8369;48.030;11.598;2023-02-08T07:49:54;17.87;;;9.60;;
16512;SDS011;8369;48.030;11.598;2023-02-08T07:52:20;16.13;;;8.77;;
16512;SDS011;8369;48.030;11.598;2023-02-08T07:54:46;19.63;;;8.67;;
16512;SDS011;8369;48.030;11.598;2023-02-08T07:57:12;19.10;;;9.50;;
16512;SDS011;8369;48.030;11.598;2023-02-08T07:59:45;17.27;;;8.73;;
16512;SDS011;8369;48.030;11.598;2023-02-08T08:02:12;18.37;;;10.47;;
16512;SDS011;8369;48.030;11.598;2023-02-08T08:04:38;17.87;;;8.73;;
16512;SDS011;8369;48.030;11.598;2023-02-08T08:07:04;14.13;;;8.30;;
16512;SDS011;8369;48.030;11.598;2023-02-08T08:09:30;20.43;;;9.87;;
16512;SDS011;8369;48.030;11.598;2023-02-08T08:11:56;16.03;;;9.23;;
16512;SDS011;8369;48.030;11.598;2023-02-08T08:14:22;18.87;;;9.43;;
16512;SDS011;8369;48.030;11.598;2023-02-08T08:16:47;20.93;;;10.00;;
16512;SDS011;8369;48.030;11.598;2023-02-08T08:19:13;18.93;;;9.67;;
16512;SDS011;8369;48.030;11.598;2023-02-08T08:21:39;19.70;;;9.20;;
16512;SDS011;8369;48.030;11.598;2023-02-08T08:24:06;18.53;;;9.60;;
16512;SDS011;8369;48.030;11.598;2023-02-08T08:26:32;19.67;;;9.73;;
16512;SDS011;8369;48.030;11.598;2023-02-08T08:28:57;15.73;;;8.73;;
16512;SDS011;8369;48.030;11.598;2023-02-08T08:31:23;20.30;;;9.80;;
16512;SDS011;8369;48.030;11.598;2023-02-08T08:33:49;15.83;;;8.97;;
16512;SDS011;8369;48.030;11.598;2023-02-08T08:36:15;19.63;;;9.07;;
16512;SDS011;8369;48.030;11.598;2023-02-08T08:38:40;19.97;;;8.80;;
16512;SDS011;8369;48.030;11.598;2023-02-08T08:41:07;22.27;;;12.50;;
16512;SDS011;8369;48.030;11.598;2023-02-08T08:43:38;17.30;;;9.57;;
16512;SDS011;8369;48.030;11.598;2023-02-08T08:46:05;15.57;;;9.50;;
16512;SDS011;8369;48.030;11.598;2023-02-08T08:48:32;18.70;;;8.63;;
16512;SDS011;8369;48.030;11.598;2023-02-08T08:50:59;18.60;;;9.23;;
16512;SDS011;8369;48.030;11.598;2023-02-08T08:53:25;13.67;;;8.53;;
16512;SDS011;8369;48.030;11.598;2023-02-08T08:55:51;15.70;;;9.27;;
16512;SDS011;8369;48.030;11.598;2023-02-08T08:58:17;16.53;;;9.30;;
16512;SDS011;8369;48.030;11.598;2023-02-08T09:00:42;16.57;;;8.43;;
16512;SDS011;8369;48.030;11.598;2023-02-08T09:03:08;17.43;;;9.90;;
16512;SDS011;8369;48.030;11.598;2023-02-08T09:05:34;17.03;;;9.10;;
16512;SDS011;8369;48.030;11.598;2023-02-08T09:08:00;16.57;;;7.77;;
16512;SDS011;8369;48.030;11.598;2023-02-08T09:10:27;17.87;;;8.37;;
16512;SDS011;8369;48.030;11.598;2023-02-08T09:12:55;14.80;;;7.67;;
16512;SDS011;8369;48.030;11.598;2023-02-08T09:15:21;12.87;;;8.47;;
16512;SDS011;8369;48.030;11.598;2023-02-08T09:17:47;19.97;;;8.67;;
16512;SDS011;8369;48.030;11.598;2023-02-08T09:20:12;14.93;;;8.50;;
16512;SDS011;8369;48.030;11.598;2023-02-08T09:22:38;17.70;;;8.20;;
16512;SDS011;8369;48.030;11.598;2023-02-08T09:25:04;18.20;;;8.20;;
16512;SDS011;8369;48.030;11.598;2023-02-08T09:27:31;17.40;;;8.57;;
16512;SDS011;8369;48.030;11.598;2023-02-08T09:29:57;17.20;;;9.23;;
16512;SDS011;8369;48.030;11.598;2023-02-08T09:32:23;17.50;;;8.97;;
16512;SDS011;8369;48.030;11.598;2023-02-08T09:34:49;13.57;;;7.77;;
16512;SDS011;8369;48.030;11.598;2023-02-08T09:37:14;12.00;;;6.87;;
16512;SDS011;8369;48.030;11.598;2023-02-08T09:39:42;15.70;;;8.53;;
16512;SDS011;8369;48.030;11.598;2023-02-08T09:42:28;13.47;;;7.80;;
16512;SDS011;8369;48.030;11.598;2023-02-08T09:45:04;13.37;;;7.63;;
16512;SDS011;8369;48.030;11.598;2023-02-08T09:48:19;15.90;;;8.23;;
16512;SDS011;8369;48.030;11.598;2023-02-08T09:51:00;15.87;;;7.67;;
16512;SDS011;8369;48.030;11.598;2023-02-08T09:53:49;14.00;;;7.37;;
16512;SDS011;8369;48.030;11.598;2023-02-08T09:56:33;12.50;;;6.70;;
16512;SDS011;8369;48.030;11.598;2023-02-08T09:59:04;13.77;;;7.40;;
16512;SDS011;8369;48.030;11.598;2023-02-08T10:01:31;23.47;;;7.50;;
16512;SDS011;8369;48.030;11.598;2023-02-08T10:04:02;12.83;;;7.17;;
16512;SDS011;8369;48.030;11.598;2023-02-08T10:06:34;16.33;;;8.23;;
16512;SDS011;8369;48.030;11.598;2023-02-08T10:09:02;14.10;;;8.17;;
16512;SDS011;8369;48.030;11.598;2023-02-08T10:11:54;14.30;;;8.40;;
16512;SDS011;8369;48.030;11.598;2023-02-08T10:23:03;16.07;;;8.87;;
16512;SDS011;8369;48.030;11.598;2023-02-08T10:25:45;16.50;;;9.00;;
16512;SDS011;8369;48.030;11.598;2023-02-08T10:36:32;17.53;;;9.47;;
16512;SDS011;8369;48.030;11.598;2023-02-08T10:39:16;21.83;;;10.07;;
16512;SDS011;8369;48.030;11.598;2023-02-08T10:41:49;14.70;;;8.60;;
16512;SDS011;8369;48.030;11.598;2023-02-08T10:45:04;18.40;;;9.40;;
16512;SDS011;8369;48.030;11.598;2023-02-08T10:50:04;15.30;;;9.20;;
16512;SDS011;8369;48.030;11.598;2023-02-08T10:52:39;17.30;;;9.13;;
16512;SDS011;8369;48.030;11.598;2023-02-08T10:55:11;21.70;;;10.43;;
16512;SDS011;8369;48.030;11.598;2023-02-08T10:57:41;14.27;;;8.33;;
16512;SDS011;8369;48.030;11.598;2023-02-08T11:00:19;18.30;;;9.33;;
16512;SDS011;8369;48.030;11.598;2023-02-08T11:02:48;17.00;;;9.17;;
16512;SDS011;8369;48.030;11.598;2023-02-08T11:05:17;18.63;;;9.90;;
16512;SDS011;8369;48.030;11.598;2023-02-08T11:07:43;15.80;;;8.97;;
16512;SDS011;8369;48.030;11.598;2023-02-08T11:10:31;19.33;;;9.10;;
16512;SDS011;8369;48.030;11.598;2023-02-08T11:12:57;14.17;;;8.67;;
16512;SDS011;8369;48.030;11.598;2023-02-08T11:15:28;20.70;;;10.07;;
16512;SDS011;8369;48.030;11.598;2023-02-08T11:17:59;14.67;;;8.13;;
16512;SDS011;8369;48.030;11.598;2023-02-08T11:20:28;15.17;;;8.87;;
16512;SDS011;8369;48.030;11.598;2023-02-08T11:23:01;18.07;;;9.73;;
16512;SDS011;8369;48.030;11.598;2023-02-08T11:25:33;14.73;;;9.03;;
16512;SDS011;8369;48.030;11.598;2023-02-08T11:28:02;17.07;;;8.97;;
16512;SDS011;8369;48.030;11.598;2023-02-08T11:30:29;17.77;;;10.20;;
16512;SDS011;8369;48.030;11.598;2023-02-08T11:33:14;16.30;;;9.47;;
16512;SDS011;8369;48.030;11.598;2023-02-08T11:35:42;16.70;;;9.50;;
16512;SDS011;8369;48.030;11.598;2023-02-08T11:38:31;14.77;;;8.97;;
16512;SDS011;8369;48.030;11.598;2023-02-08T11:40:59;20.67;;;9.87;;
16512;SDS011;8369;48.030;11.598;2023-02-08T11:43:29;16.67;;;9.57;;
16512;SDS011;8369;48.030;11.598;2023-02-08T11:45:57;18.97;;;9.63;;
16512;SDS011;8369;48.030;11.598;2023-02-08T11:48:25;16.37;;;8.80;;
16512;SDS011;8369;48.030;11.598;2023-02-08T11:51:08;25.40;;;9.97;;
16512;SDS011;8369;48.030;11.598;2023-02-08T11:53:37;18.40;;;9.90;;
16512;SDS011;8369;48.030;11.598;2023-02-08T11:56:08;20.53;;;9.13;;
16512;SDS011;8369;48.030;11.598;2023-02-08T11:58:41;19.13;;;9.27;;
16512;SDS011;8369;48.030;11.598;2023-02-08T12:01:19;16.97;;;8.97;;
16512;SDS011;8369;48.030;11.598;2023-02-08T12:03:45;14.27;;;9.17;;
16512;SDS011;8369;48.030;11.598;2023-02-08T12:06:24;14.30;;;8.30;;
16512;SDS011;8369;48.030;11.598;2023-02-08T12:11:57;16.60;;;9.40;;
16512;SDS011;8369;48.030;11.598;2023-02-08T12:22:59;14.07;;;8.37;;
16512;SDS011;8369;48.030;11.598;2023-02-08T12:37:12;13.43;;;7.70;;
16512;SDS011;8369;48.030;11.598;2023-02-08T12:43:07;18.60;;;8.90;;
16512;SDS011;8369;48.030;11.598;2023-02-08T12:45:52;18.17;;;9.03;;
16512;SDS011;8369;48.030;11.598;2023-02-08T12:54:13;18.63;;;9.07;;
16512;SDS011;8369;48.030;11.598;2023-02-08T12:56:50;15.70;;;9.43;;
16512;SDS011;8369;48.030;11.598;2023-02-08T12:59:24;20.70;;;10.27;;
16512;SDS011;8369;48.030;11.598;2023-02-08T13:01:55;22.70;;;10.43;;
16512;SDS011;8369;48.030;11.598;2023-02-08T13:04:35;15.90;;;9.60;;
16512;SDS011;8369;48.030;11.598;2023-02-08T13:07:15;20.40;;;10.67;;
16512;SDS011;8369;48.030;11.598;2023-02-08T13:09:58;15.53;;;9.10;;
16512;SDS011;8369;48.030;11.598;2023-02-08T13:12:40;19.20;;;9.77;;
16512;SDS011;8369;48.030;11.598;2023-02-08T13:15:20;18.87;;;9.20;;
16512;SDS011;8369;48.030;11.598;2023-02-08T13:18:16;16.20;;;10.13;;
16512;SDS011;8369;48.030;11.598;2023-02-08T13:20:50;21.57;;;11.27;;
16512;SDS011;8369;48.030;11.598;2023-02-08T13:23:30;24.83;;;14.10;;
16512;SDS011;8369;48.030;11.598;2023-02-08T13:26:01;22.70;;;12.60;;
16512;SDS011;8369;48.030;11.598;2023-02-08T13:28:40;23.50;;;12.63;;
16512;SDS011;8369;48.030;11.598;2023-02-08T13:31:13;19.27;;;10.23;;
16512;SDS011;8369;48.030;11.598;2023-02-08T13:33:44;24.30;;;12.00;;
16512;SDS011;8369;48.030;11.598;2023-02-08T13:36:25;19.23;;;10.70;;
16512;SDS011;8369;48.030;11.598;2023-02-08T13:38:55;19.57;;;11.13;;
16512;SDS011;8369;48.030;11.598;2023-02-08T13:41:23;23.47;;;11.13;;
16512;SDS011;8369;48.030;11.598;2023-02-08T13:46:19;21.07;;;10.73;;
16512;SDS011;8369;48.030;11.598;2023-02-08T13:48:48;15.73;;;8.93;;
16512;SDS011;8369;48.030;11.598;2023-02-08T13:56:43;22.50;;;10.83;;
16512;SDS011;8369;48.030;11.598;2023-02-08T14:04:43;20.70;;;11.37;;
16512;SDS011;8369;48.030;11.598;2023-02-08T14:17:43;17.50;;;10.30;;
16512;SDS011;8369;48.030;11.598;2023-02-08T14:20:23;19.50;;;10.43;;
16512;SDS011;8369;48.030;11.598;2023-02-08T14:22:52;24.70;;;10.87;;
16512;SDS011;8369;48.030;11.598;2023-02-08T14:25:20;18.97;;;10.83;;
16512;SDS011;8369;48.030;11.598;2023-02-08T14:30:23;21.70;;;10.80;;
16512;SDS011;8369;48.030;11.598;2023-02-08T14:35:28;21.27;;;10.40;;
16512;SDS011;8369;48.030;11.598;2023-02-08T14:40:47;26.80;;;11.10;;
16512;SDS011;8369;48.030;11.598;2023-02-08T14:45:44;22.03;;;11.73;;
16512;SDS011;8369;48.030;11.598;2023-02-08T14:48:16;19.77;;;11.20;;
16512;SDS011;8369;48.030;11.598;2023-02-08T14:58:31;18.33;;;9.83;;
16512;SDS011;8369;48.030;11.598;2023-02-08T15:01:01;19.40;;;10.40;;
16512;SDS011;8369;48.030;11.598;2023-02-08T15:03:32;21.57;;;11.27;;
16512;SDS011;8369;48.030;11.598;2023-02-08T15:08:47;17.37;;;10.07;;
16512;SDS011;8369;48.030;11.598;2023-02-08T15:11:18;17.90;;;10.10;;
16512;SDS011;8369;48.030;11.598;2023-02-08T15:13:49;19.87;;;10.23;;
16512;SDS011;8369;48.030;11.598;2023-02-08T15:16:18;16.60;;;9.63;;
16512;SDS011;8369;48.030;11.598;2023-02-08T15:18:45;19.47;;;10.43;;
16512;SDS011;8369;48.030;11.598;2023-02-08T15:21:16;18.03;;;9.50;;
16512;SDS011;8369;48.030;11.598;2023-02-08T15:23:57;16.97;;;9.97;;
16512;SDS011;8369;48.030;11.598;2023-02-08T15:26:27;17.23;;;10.47;;
16512;SDS011;8369;48.030;11.598;2023-02-08T15:28:53;19.03;;;10.17;;
16512;SDS011;8369;48.030;11.598;2023-02-08T15:31:25;17.10;;;10.10;;
16512;SDS011;8369;48.030;11.598;2023-02-08T15:33:57;17.83;;;10.53;;
16512;SDS011;8369;48.030;11.598;2023-02-08T15:36:29;17.60;;;10.73;;
16512;SDS011;8369;48.030;11.598;2023-02-08T15:38:58;17.70;;;9.87;;
16512;SDS011;8369;48.030;11.598;2023-02-08T15:41:28;18.40;;;10.03;;
16512;SDS011;8369;48.030;11.598;2023-02-08T15:44:28;17.20;;;9.73;;
16512;SDS011;8369;48.030;11.598;2023-02-08T15:46:48;18.67;;;9.77;;
16512;SDS011;8369;48.030;11.598;2023-02-08T15:49:17;23.87;;;10.13;;
16512;SDS011;8369;48.030;11.598;2023-02-08T15:51:50;20.93;;;10.93;;
16512;SDS011;8369;48.030;11.598;2023-02-08T15:54:21;17.97;;;10.43;;
16512;SDS011;8369;48.030;11.598;2023-02-08T15:56:52;19.30;;;9.40;;
16512;SDS011;8369;48.030;11.598;2023-02-08T15:59:32;20.20;;;9.87;;
16512;SDS011;8369;48.030;11.598;2023-02-08T16:02:07;19.70;;;9.20;;
16512;SDS011;8369;48.030;11.598;2023-02-08T16:04:45;19.50;;;9.47;;
16512;SDS011;8369;48.030;11.598;2023-02-08T16:07:22;17.33;;;10.23;;
16512;SDS011;8369;48.030;11.598;2023-02-08T16:09:51;16.70;;;9.70;;
16512;SDS011;8369;48.030;11.598;2023-02-08T16:12:19;15.97;;;10.00;;
16512;SDS011;8369;48.030;11.598;2023-02-08T16:14:46;17.07;;;9.57;;
16512;SDS011;8369;48.030;11.598;2023-02-08T16:17:27;20.57;;;9.30;;
16512;SDS011;8369;48.030;11.598;2023-02-08T16:20:01;21.37;;;9.53;;
16512;SDS011;8369;48.030;11.598;2023-02-08T16:22:44;19.03;;;10.10;;
16512;SDS011;8369;48.030;11.598;2023-02-08T16:27:53;16.93;;;9.40;;
16512;SDS011;8369;48.030;11.598;2023-02-08T16:30:19;16.70;;;9.93;;
16512;SDS011;8369;48.030;11.598;2023-02-08T16:32:46;18.30;;;10.60;;
16512;SDS011;8369;48.030;11.598;2023-02-08T16:35:13;18.23;;;10.50;;
16512;SDS011;8369;48.030;11.598;2023-02-08T16:37:57;18.13;;;10.17;;
16512;SDS011;8369;48.030;11.598;2023-02-08T16:40:43;18.50;;;9.47;;
16512;SDS011;8369;48.030;11.598;2023-02-08T16:43:14;18.80;;;10.00;;
16512;SDS011;8369;48.030;11.598;2023-02-08T16:45:53;19.80;;;10.70;;
16512;SDS011;8369;48.030;11.598;2023-02-08T16:48:35;16.60;;;8.77;;
16512;SDS011;8369;48.030;11.598;2023-02-08T16:51:06;17.80;;;9.73;;
16512;SDS011;8369;48.030;11.598;2023-02-08T16:53:38;16.30;;;8.80;;
16512;SDS011;8369;48.030;11.598;2023-02-08T16:56:06;21.37;;;10.27;;
16512;SDS011;8369;48.030;11.598;2023-02-08T16:58:32;20.00;;;10.07;;
16512;SDS011;8369;48.030;11.598;2023-02-08T17:00:58;18.03;;;9.70;;
16512;SDS011;8369;48.030;11.598;2023-02-08T17:03:24;18.17;;;9.07;;
16512;SDS011;8369;48.030;11.598;2023-02-08T17:05:50;18.83;;;9.07;;
16512;SDS011;8369;48.030;11.598;2023-02-08T17:08:17;16.50;;;9.63;;
16512;SDS011;8369;48.030;11.598;2023-02-08T17:10:44;15.27;;;9.33;;